Time;durP1;ratioP1;P1;durP2;ratioP2;P2;SDS_P1;SDS_P2;PMS_P1;PMS_P2;Temp;Humidity;BMP_temperature;BMP_pressure;BME280_temperature;BME280_humidity;BME280_pressure;Samples;Min_cycle;Max_cycle;Signal;HPM_P1;HPM_P2
2023/09/08 00:02:57;;;;;;;;;;;;;;;;;;6335885;28;19916;-82
2023/09/08 00:05:57;;;;;;;;;;;;;;;;;;6366953;27;19927;-82
2023/09/08 00:08:59;;;;;;;;;;;;;;;;;;6365196;27;20002;-82
2023/09/08 00:12:01;;;;;;;;;;;;;;;;;;6354530;27;19938;-81
2023/09/08 00:15:01;;;;;;;;;;;;;;;;;;6331237;28;19916;-81
2023/09/08 00:18:02;;;;;;;;;;;;;;;;;;6367884;27;19954;-82
2023/09/08 00:21:02;;;;;;;;;;;;;;;;;;6375336;27;19907;-81
2023/09/08 00:24:03;;;;;;;;;;;;;;;;;;6375247;27;20349;-82
2023/09/08 00:27:03;;;;;;;;;;;;;;;;;;6361419;28;19969;-81
2023/09/08 00:30:04;;;;;;;;;;;;;;;;;;6354194;27;19954;-81
2023/09/08 00:33:04;;;;;;;;;;;;;;;;;;6369609;27;19946;-81
2023/09/08 00:36:05;;;;;;;;;;;;;;;;;;6372030;27;20369;-82
2023/09/08 00:39:06;;;;;;;;;;;;;;;;;;6346456;28;20391;-81
2023/09/08 00:42:06;;;;;;;;;;;;;;;;;;6337991;27;19922;-85
2023/09/08 00:45:08;;;;;;;;;;;;;;;;;;6371730;27;19918;-86
2023/09/08 00:48:09;;;;;;;;;;;;;;;;;;6363081;27;20315;-85
2023/09/08 00:51:12;;;;;;;;;;;;;;;;;;6372638;27;19915;-84
2023/09/08 00:54:14;;;;;;;;;;;;;;;;;;6342669;28;19976;-84
2023/09/08 00:57:15;;;;;;;;;;;;;;;;;;6373044;28;19928;-84
2023/09/08 01:00:16;;;;;;;;;;;;;;;;;;6368877;28;20318;-83
2023/09/08 01:03:16;;;;;;;;;;;;;;;;;;6370553;28;20277;-85
2023/09/08 01:06:18;;;;;;;;;;;;;;;;;;6373258;28;20369;-86
2023/09/08 01:09:18;;;;;;;;;;;;;;;;;;6354731;28;20273;-85
2023/09/08 01:12:18;;;;;;;;;;;;;;;;;;6351755;28;19960;-86
2023/09/08 01:15:19;;;;;;;;;;;;;;;;;;6363027;28;19911;-86
2023/09/08 01:18:19;;;;;;;;;;;;;;;;;;6361861;28;19911;-85
2023/09/08 01:21:19;;;;;;;;;;;;;;;;;;6363119;28;19919;-86
2023/09/08 01:24:19;;;;;;;;;;;;;;;;;;6350250;28;19961;-86
2023/09/08 01:27:19;;;;;;;;;;;;;;;;;;6364507;27;19987;-85
2023/09/08 01:30:20;;;;;;;;;;;;;;;;;;6369460;28;20015;-85
2023/09/08 01:33:21;;;;;;;;;;;;;;;;;;6349461;28;20015;-85
2023/09/08 01:36:21;;;;;;;;;;;;;;;;;;6367354;28;20041;-85
2023/09/08 01:39:22;;;;;;;;;;;;;;;;;;6369311;28;20340;-84
2023/09/08 01:42:22;;;;;;;;;;;;;;;;;;6348265;28;19907;-85
2023/09/08 01:45:22;;;;;;;;;;;;;;;;;;6364671;27;20030;-84
2023/09/08 01:48:22;;;;;;;;;;;;;;;;;;6365529;27;19935;-84
2023/09/08 01:51:22;;;;;;;;;;;;;;;;;;6343989;28;19916;-84
2023/09/08 01:54:23;;;;;;;;;;;;;;;;;;6375429;27;21292;-83
2023/09/08 01:57:24;;;;;;;;;;;;;;;;;;6373964;27;19927;-82
2023/09/08 02:00:24;;;;;;;;;;;;;;;;;;6370841;27;20003;-82
2023/09/08 02:03:24;;;;;;;;;;;;;;;;;;6372258;27;19907;-83
2023/09/08 02:06:24;;;;;;;;;;;;;;;;;;6351210;27;19962;-83
2023/09/08 02:09:25;;;;;;;;;;;;;;;;;;6362343;27;20041;-82
2023/09/08 02:12:25;;;;;;;;;;;;;;;;;;6374856;27;19911;-83
2023/09/08 02:15:25;;;;;;;;;;;;;;;;;;6343162;27;19907;-83
2023/09/08 02:18:25;;;;;;;;;;;;;;;;;;6355121;27;19938;-83
2023/09/08 02:21:25;;;;;;;;;;;;;;;;;;6373296;27;19907;-83
2023/09/08 02:24:25;;;;;;;;;;;;;;;;;;6373462;27;19984;-83
2023/09/08 02:27:25;;;;;;;;;;;;;;;;;;6357640;27;20006;-83
2023/09/08 02:30:26;;;;;;;;;;;;;;;;;;6356337;27;19907;-83
2023/09/08 02:33:26;;;;;;;;;;;;;;;;;;6387423;27;19918;-83
2023/09/08 02:36:26;;;;;;;;;;;;;;;;;;6370054;27;19907;-83
2023/09/08 02:39:26;;;;;;;;;;;;;;;;;;6381796;27;19911;-82
2023/09/08 02:42:26;;;;;;;;;;;;;;;;;;6370285;27;19908;-83
2023/09/08 02:45:27;;;;;;;;;;;;;;;;;;6367792;27;19912;-83
2023/09/08 02:48:27;;;;;;;;;;;;;;;;;;6367950;27;19975;-83
2023/09/08 02:51:27;;;;;;;;;;;;;;;;;;6370723;27;20039;-84
2023/09/08 02:54:27;;;;;;;;;;;;;;;;;;6354332;27;20388;-83
2023/09/08 02:57:28;;;;;;;;;;;;;;;;;;6343873;28;19924;-83
2023/09/08 03:00:29;;;;;;;;;;;;;;;;;;6369976;27;19958;-84
2023/09/08 03:03:29;;;;;;;;;;;;;;;;;;6373103;27;20350;-84
2023/09/08 03:06:29;;;;;;;;;;;;;;;;;;6352923;27;19918;-84
2023/09/08 03:09:30;;;;;;;;;;;;;;;;;;6356235;27;19908;-84
2023/09/08 03:12:30;;;;;;;;;;;;;;;;;;6354981;27;19919;-84
2023/09/08 03:15:30;;;;;;;;;;;;;;;;;;6369297;27;19934;-83
2023/09/08 03:18:32;;;;;;;;;;;;;;;;;;6373919;27;19980;-84
2023/09/08 03:21:32;;;;;;;;;;;;;;;;;;6367670;27;20033;-83
2023/09/08 03:24:32;;;;;;;;;;;;;;;;;;6369767;27;19911;-83
2023/09/08 03:27:32;;;;;;;;;;;;;;;;;;6354684;27;19978;-83
2023/09/08 03:30:33;;;;;;;;;;;;;;;;;;6354750;27;20325;-83
2023/09/08 03:33:33;;;;;;;;;;;;;;;;;;6337022;28;19916;-83
2023/09/08 03:36:35;;;;;;;;;;;;;;;;;;6365276;27;20411;-83
2023/09/08 03:39:36;;;;;;;;;;;;;;;;;;6372751;27;19908;-83
2023/09/08 03:42:36;;;;;;;;;;;;;;;;;;6355124;27;19977;-83
2023/09/08 03:45:36;;;;;;;;;;;;;;;;;;6353800;27;19911;-83
2023/09/08 03:48:36;;;;;;;;;;;;;;;;;;6347949;27;19951;-83
2023/09/08 03:51:36;;;;;;;;;;;;;;;;;;6340774;27;19911;-83
2023/09/08 03:54:37;;;;;;;;;;;;;;;;;;6354506;27;19911;-84
2023/09/08 03:57:37;;;;;;;;;;;;;;;;;;6338545;27;19932;-83
2023/09/08 04:00:37;;;;;;;;;;;;;;;;;;6369323;27;19950;-82
2023/09/08 04:03:37;;;;;;;;;;;;;;;;;;6363505;27;20010;-83
2023/09/08 04:06:38;;;;;;;;;;;;;;;;;;6353856;27;20298;-82
2023/09/08 04:09:39;;;;;;;;;;;;;;;;;;6371622;27;19914;-83
2023/09/08 04:12:40;;;;;;;;;;;;;;;;;;6344053;27;20306;-84
2023/09/08 04:15:40;;;;;;;;;;;;;;;;;;6370179;27;19983;-83
2023/09/08 04:18:41;;;;;;;;;;;;;;;;;;6372875;27;20285;-84
2023/09/08 04:21:42;;;;;;;;;;;;;;;;;;6361820;27;19911;-83
2023/09/08 04:24:42;;;;;;;;;;;;;;;;;;6372707;27;19923;-84
2023/09/08 04:27:44;;;;;;;;;;;;;;;;;;6354788;27;20463;-84
2023/09/08 04:30:44;;;;;;;;;;;;;;;;;;6348349;27;19922;-84
2023/09/08 04:33:45;;;;;;;;;;;;;;;;;;6371394;27;19915;-84
2023/09/08 04:36:46;;;;;;;;;;;;;;;;;;6352844;27;19916;-85
2023/09/08 04:39:46;;;;;;;;;;;;;;;;;;6373968;27;19914;-85
2023/09/08 04:42:46;;;;;;;;;;;;;;;;;;6381481;27;19931;-84
2023/09/08 04:45:46;;;;;;;;;;;;;;;;;;6387573;27;19963;-84
2023/09/08 04:48:46;;;;;;;;;;;;;;;;;;6400551;27;19908;-85
2023/09/08 04:51:46;;;;;;;;;;;;;;;;;;6360267;27;20022;-84
2023/09/08 04:54:47;;;;;;;;;;;;;;;;;;6372878;28;19912;-85
2023/09/08 04:57:47;;;;;;;;;;;;;;;;;;6353341;28;19923;-85
2023/09/08 05:00:47;;;;;;;;;;;;;;;;;;6361286;28;19918;-85
2023/09/08 05:03:48;;;;;;;;;;;;;;;;;;6372410;28;20319;-86
2023/09/08 05:06:48;;;;;;;;;;;;;;;;;;6372609;28;19926;-86
2023/09/08 05:09:48;;;;;;;;;;;;;;;;;;6353331;28;19927;-85
2023/09/08 05:12:50;;;;;;;;;;;;;;;;;;6373304;28;19907;-85
2023/09/08 05:15:52;;;;;;;;;;;;;;;;;;6369449;28;19917;-85
2023/09/08 05:18:52;;;;;;;;;;;;;;;;;;6366673;27;19915;-86
2023/09/08 05:21:52;;;;;;;;;;;;;;;;;;6377143;27;20391;-85
2023/09/08 05:24:52;;;;;;;;;;;;;;;;;;6355815;27;20322;-85
2023/09/08 05:27:53;;;;;;;;;;;;;;;;;;6375402;27;19964;-86
2023/09/08 05:30:53;;;;;;;;;;;;;;;;;;6377023;27;19964;-86
2023/09/08 05:33:54;;;;;;;;;;;;;;;;;;6375066;27;19915;-86
2023/09/08 05:36:55;;;;;;;;;;;;;;;;;;6376642;27;19975;-85
2023/09/08 05:39:55;;;;;;;;;;;;;;;;;;6360855;27;20289;-86
2023/09/08 05:42:55;;;;;;;;;;;;;;;;;;6382210;27;19923;-87
2023/09/08 05:45:56;;;;;;;;;;;;;;;;;;6397148;27;19975;-86
2023/09/08 05:48:56;;;;;;;;;;;;;;;;;;6359347;28;19912;-86
2023/09/08 05:51:56;;;;;;;;;;;;;;;;;;6398295;27;19912;-85
2023/09/08 05:54:56;;;;;;;;;;;;;;;;;;6393292;27;20046;-85
2023/09/08 05:57:56;;;;;;;;;;;;;;;;;;6402439;27;19976;-85
2023/09/08 06:00:56;;;;;;;;;;;;;;;;;;6398236;27;20064;-86
2023/09/08 06:03:56;;;;;;;;;;;;;;;;;;6404875;27;19915;-85
2023/09/08 06:06:57;;;;;;;;;;;;;;;;;;6388394;27;19900;-84
2023/09/08 06:09:57;;;;;;;;;;;;;;;;;;6388502;27;19899;-84
2023/09/08 06:12:57;;;;;;;;;;;;;;;;;;6406894;27;19915;-85
2023/09/08 06:15:57;;;;;;;;;;;;;;;;;;6386864;27;19929;-84
2023/09/08 06:18:57;;;;;;;;;;;;;;;;;;6385588;27;19923;-85
2023/09/08 06:21:58;;;;;;;;;;;;;;;;;;6381135;27;19964;-85
2023/09/08 06:24:58;;;;;;;;;;;;;;;;;;6381447;27;20354;-84
2023/09/08 06:27:59;;;;;;;;;;;;;;;;;;6361422;27;19911;-84
2023/09/08 06:30:59;;;;;;;;;;;;;;;;;;6385338;27;19968;-85
2023/09/08 06:34:00;;;;;;;;;;;;;;;;;;6387029;27;19912;-86
2023/09/08 06:37:00;;;;;;;;;;;;;;;;;;6014958;27;10000207;-86
2023/09/08 06:40:01;;;;;;;;;;;;;;;;;;6355945;27;19915;-83
2023/09/08 06:43:01;;;;;;;;;;;;;;;;;;6353882;27;19918;-86
2023/09/08 06:46:01;;;;;;;;;;;;;;;;;;6361603;27;19986;-84
2023/09/08 06:49:01;;;;;;;;;;;;;;;;;;6360577;28;19938;-83
2023/09/08 06:52:01;;;;;;;;;;;;;;;;;;6384994;27;19931;-81
2023/09/08 06:55:02;;;;;;;;;;;;;;;;;;6381263;27;19996;-84
2023/09/08 06:58:03;;;;;;;;;;;;;;;;;;6391238;27;19927;-82
2023/09/08 07:01:03;;;;;;;;;;;;;;;;;;6373470;27;19916;-83
2023/09/08 07:04:10;;;;;;;;;;;;;;;;;;6379584;27;20002;-83
2023/09/08 07:07:18;;;;;;;;;;;;;;;;;;6372288;27;19954;-83
2023/09/08 07:10:21;;;;;;;;;;;;;;;;;;6386748;27;19930;-83
2023/09/08 07:13:21;;;;;;;;;;;;;;;;;;6384457;27;19899;-80
2023/09/08 07:16:23;;;;;;;;;;;;;;;;;;6370557;27;20454;-80
2023/09/08 07:19:23;;;;;;;;;;;;;;;;;;6381821;27;19919;-80
2023/09/08 07:22:23;;;;;;;;;;;;;;;;;;6369470;27;19919;-80
2023/09/08 07:25:23;;;;;;;;;;;;;;;;;;6369067;27;19915;-80
2023/09/08 07:28:23;;;;;;;;;;;;;;;;;;6370017;27;19915;-80
2023/09/08 07:31:24;;;;;;;;;;;;;;;;;;6362182;27;19915;-79
2023/09/08 07:34:24;;;;;;;;;;;;;;;;;;6372595;27;20030;-80
2023/09/08 07:37:25;;;;;;;;;;;;;;;;;;6372052;27;19919;-80
2023/09/08 07:40:25;;;;;;;;;;;;;;;;;;6365048;27;20409;-80
2023/09/08 07:43:26;;;;;;;;;;;;;;;;;;6344871;27;19916;-80
2023/09/08 07:46:26;;;;;;;;;;;;;;;;;;6346989;27;19915;-80
2023/09/08 07:49:26;;;;;;;;;;;;;;;;;;6348457;27;20322;-79
2023/09/08 07:52:26;;;;;;;;;;;;;;;;;;6353508;27;20021;-79
2023/09/08 07:55:27;;;;;;;;;;;;;;;;;;6369011;27;19922;-78
2023/09/08 07:58:27;;;;;;;;;;;;;;;;;;6367246;27;20007;-80
2023/09/08 08:01:28;;;;;;;;;;;;;;;;;;6362786;27;20034;-79
2023/09/08 08:04:29;;;;;;;;;;;;;;;;;;6366709;27;19915;-80
2023/09/08 08:07:30;;;;;;;;;;;;;;;;;;6341653;27;19915;-81
2023/09/08 08:10:33;;;;;;;;;;;;;;;;;;6362977;27;20060;-81
2023/09/08 08:13:33;;;;;;;;;;;;;;;;;;6353497;27;19953;-81
2023/09/08 08:16:34;;;;;;;;;;;;;;;;;;6362150;27;19912;-81
2023/09/08 08:19:34;;;;;;;;;;;;;;;;;;6370413;27;20385;-81
2023/09/08 08:22:35;;;;;;;;;;;;;;;;;;6367919;27;19960;-82
2023/09/08 08:25:35;;;;;;;;;;;;;;;;;;6358515;27;19979;-82
2023/09/08 08:28:38;;;;;;;;;;;;;;;;;;6349345;27;19977;-81
2023/09/08 08:31:38;;;;;;;;;;;;;;;;;;6350929;27;19915;-81
2023/09/08 08:34:40;;;;;;;;;;;;;;;;;;6352676;27;19911;-82
2023/09/08 08:37:40;;;;;;;;;;;;;;;;;;6370313;27;19915;-82
2023/09/08 08:40:41;;;;;;;;;;;;;;;;;;6354940;27;20410;-83
2023/09/08 08:43:41;;;;;;;;;;;;;;;;;;6353522;27;20018;-81
2023/09/08 08:46:42;;;;;;;;;;;;;;;;;;6362252;27;19922;-82
2023/09/08 08:49:43;;;;;;;;;;;;;;;;;;6371232;27;19926;-82
2023/09/08 08:52:43;;;;;;;;;;;;;;;;;;6363349;27;20319;-82
2023/09/08 08:55:43;;;;;;;;;;;;;;;;;;6347882;28;20355;-80
2023/09/08 08:58:43;;;;;;;;;;;;;;;;;;6359276;28;19924;-80
2023/09/08 09:01:44;;;;;;;;;;;;;;;;;;6372704;28;19953;-81
2023/09/08 09:04:46;;;;;;;;;;;;;;;;;;6362736;28;19927;-80
2023/09/08 09:07:46;;;;;;;;;;;;;;;;;;6370943;28;19916;-81
2023/09/08 09:10:46;;;;;;;;;;;;;;;;;;6376305;28;19945;-81
2023/09/08 09:13:46;;;;;;;;;;;;;;;;;;6373581;28;20019;-81
2023/09/08 09:16:47;;;;;;;;;;;;;;;;;;6368406;28;19926;-81
2023/09/08 09:19:48;;;;;;;;;;;;;;;;;;6349075;28;20395;-82
2023/09/08 09:22:49;;;;;;;;;;;;;;;;;;6368981;28;20441;-81
2023/09/08 09:25:49;;;;;;;;;;;;;;;;;;6366989;28;19950;-81
2023/09/08 09:28:51;;;;;;;;;;;;;;;;;;6349679;28;19919;-80
2023/09/08 09:31:53;;;;;;;;;;;;;;;;;;6344699;28;19963;-80
2023/09/08 09:34:54;;;;;;;;;;;;;;;;;;6349306;28;19911;-81
2023/09/08 09:37:54;;;;;;;;;;;;;;;;;;6362923;28;19926;-79
2023/09/08 09:40:56;;;;;;;;;;;;;;;;;;6355400;28;19915;-80
2023/09/08 09:43:56;;;;;;;;;;;;;;;;;;6365364;28;19920;-79
2023/09/08 09:46:57;;;;;;;;;;;;;;;;;;6365819;28;19938;-80
2023/09/08 09:49:58;;;;;;;;;;;;;;;;;;6347346;28;19919;-80
2023/09/08 09:53:00;;;;;;;;;;;;;;;;;;6367443;28;19983;-80
2023/09/08 09:56:00;;;;;;;;;;;;;;;;;;6347251;28;19912;-80
2023/09/08 09:59:00;;;;;;;;;;;;;;;;;;6340398;28;19963;-79
2023/09/08 10:02:00;;;;;;;;;;;;;;;;;;6338145;28;20322;-80
2023/09/08 10:05:00;;;;;;;;;;;;;;;;;;6334979;28;19923;-81
2023/09/08 10:08:01;;;;;;;;;;;;;;;;;;6326259;28;20006;-80
2023/09/08 10:11:02;;;;;;;;;;;;;;;;;;6334424;28;19919;-79
2023/09/08 10:14:02;;;;;;;;;;;;;;;;;;6339186;28;20367;-79
2023/09/08 10:17:02;;;;;;;;;;;;;;;;;;5970307;28;9999781;-79
2023/09/08 10:20:10;;;;;;;;;;;;;;;;;;6323217;28;19954;-78
2023/09/08 10:23:12;;;;;;;;;;;;;;;;;;6329374;28;20007;-79
2023/09/08 10:26:12;;;;;;;;;;;;;;;;;;6345538;28;19918;-79
2023/09/08 10:29:12;;;;;;;;;;;;;;;;;;6324527;28;19919;-79
2023/09/08 10:32:12;;;;;;;;;;;;;;;;;;6332341;28;19915;-79
2023/09/08 10:35:12;;;;;;;;;;;;;;;;;;6338695;28;20030;-78
2023/09/08 10:38:12;;;;;;;;;;;;;;;;;;6349065;28;19912;-78
2023/09/08 10:41:13;;;;;;;;;;;;;;;;;;6332837;28;19920;-83
2023/09/08 10:44:13;;;;;;;;;;;;;;;;;;6332235;28;20013;-82
2023/09/08 10:47:13;;;;;;;;;;;;;;;;;;6346109;28;19919;-80
2023/09/08 10:50:13;;;;;;;;;;;;;;;;;;6348623;28;19958;-81
2023/09/08 10:53:14;;;;;;;;;;;;;;;;;;6331380;28;19908;-85
2023/09/08 10:56:14;;;;;;;;;;;;;;;;;;6348361;28;20534;-83
2023/09/08 10:59:14;;;;;;;;;;;;;;;;;;6363586;27;19919;-80
2023/09/08 11:02:14;;;;;;;;;;;;;;;;;;6356301;27;19911;-79
2023/09/08 11:05:15;;;;;;;;;;;;;;;;;;6373799;27;19962;-80
2023/09/08 11:08:17;;;;;;;;;;;;;;;;;;6355263;27;19922;-80
2023/09/08 11:11:18;;;;;;;;;;;;;;;;;;6373997;27;19939;-80
2023/09/08 11:14:18;;;;;;;;;;;;;;;;;;6335415;28;19916;-79
2023/09/08 11:17:18;;;;;;;;;;;;;;;;;;6364875;27;20019;-83
2023/09/08 11:20:18;;;;;;;;;;;;;;;;;;6382575;27;19998;-80
2023/09/08 11:23:18;;;;;;;;;;;;;;;;;;6388456;27;19962;-81
2023/09/08 11:26:19;;;;;;;;;;;;;;;;;;6381955;27;19915;-85
2023/09/08 11:29:20;;;;;;;;;;;;;;;;;;6353578;27;19911;-81
2023/09/08 11:32:20;;;;;;;;;;;;;;;;;;6374261;27;20018;-81
2023/09/08 11:35:20;;;;;;;;;;;;;;;;;;6372985;27;19912;-81
2023/09/08 11:38:20;;;;;;;;;;;;;;;;;;6374477;27;19926;-85
2023/09/08 11:41:23;;;;;;;;;;;;;;;;;;6354105;27;19926;-85
2023/09/08 11:44:24;;;;;;;;;;;;;;;;;;6353852;27;19923;-82
2023/09/08 11:47:24;;;;;;;;;;;;;;;;;;6372582;27;20346;-89
2023/09/08 11:50:24;;;;;;;;;;;;;;;;;;6373313;27;20013;-87
2023/09/08 11:53:24;;;;;;;;;;;;;;;;;;6373992;27;20008;-86
2023/09/08 11:56:24;;;;;;;;;;;;;;;;;;6351123;27;19911;-86
2023/09/08 11:59:24;;;;;;;;;;;;;;;;;;6360162;27;19930;-86
2023/09/08 12:02:25;;;;;;;;;;;;;;;;;;6373683;27;19990;-87
2023/09/08 12:05:25;;;;;;;;;;;;;;;;;;6377663;27;19923;-88
2023/09/08 12:08:28;;;;;;;;;;;;;;;;;;6373264;27;19927;-88
2023/09/08 12:11:29;;;;;;;;;;;;;;;;;;6001317;27;10000498;-87
2023/09/08 12:14:30;;;;;;;;;;;;;;;;;;6371642;27;19908;-87
2023/09/08 12:17:30;;;;;;;;;;;;;;;;;;6369897;27;20021;-86
2023/09/08 12:20:30;;;;;;;;;;;;;;;;;;6349440;27;19911;-88
2023/09/08 12:23:30;;;;;;;;;;;;;;;;;;6372777;27;19916;-87
2023/09/08 12:26:31;;;;;;;;;;;;;;;;;;6372093;27;20006;-86
2023/09/08 12:29:31;;;;;;;;;;;;;;;;;;6370351;27;20303;-86
2023/09/08 12:32:31;;;;;;;;;;;;;;;;;;6370098;27;19987;-87
2023/09/08 12:35:34;;;;;;;;;;;;;;;;;;6370234;27;19931;-86
2023/09/08 12:38:34;;;;;;;;;;;;;;;;;;6351106;27;19960;-87
2023/09/08 12:41:34;;;;;;;;;;;;;;;;;;6352563;27;20011;-87
2023/09/08 12:44:34;;;;;;;;;;;;;;;;;;6350084;27;19907;-87
2023/09/08 12:47:35;;;;;;;;;;;;;;;;;;6368288;27;19920;-86
2023/09/08 12:50:38;;;;;;;;;;;;;;;;;;6351964;27;19916;-86
2023/09/08 12:53:39;;;;;;;;;;;;;;;;;;6378175;27;19912;-88
2023/09/08 12:56:40;;;;;;;;;;;;;;;;;;6363269;27;20419;-88
2023/09/08 12:59:40;;;;;;;;;;;;;;;;;;6368210;27;19942;-87
2023/09/08 13:02:41;;;;;;;;;;;;;;;;;;6369697;28;19912;-88
2023/09/08 13:05:42;;;;;;;;;;;;;;;;;;6369686;28;19951;-87
2023/09/08 13:08:42;;;;;;;;;;;;;;;;;;6354284;28;19919;-87
2023/09/08 13:11:42;;;;;;;;;;;;;;;;;;6351678;28;20310;-88
2023/09/08 13:14:43;;;;;;;;;;;;;;;;;;6370817;28;19912;-85
2023/09/08 13:17:44;;;;;;;;;;;;;;;;;;6369809;28;19915;-87
2023/09/08 13:20:44;;;;;;;;;;;;;;;;;;6375552;28;19918;-87
2023/09/08 13:23:44;;;;;;;;;;;;;;;;;;6372458;28;19915;-86
2023/09/08 13:26:45;;;;;;;;;;;;;;;;;;6383148;28;19912;-86
2023/09/08 13:29:45;;;;;;;;;;;;;;;;;;6383002;28;19948;-88
2023/09/08 13:32:45;;;;;;;;;;;;;;;;;;6392231;28;19895;-87
2023/09/08 13:35:45;;;;;;;;;;;;;;;;;;6385645;28;19923;-89
2023/09/08 13:38:45;;;;;;;;;;;;;;;;;;6367957;28;19980;-89
2023/09/08 13:41:47;;;;;;;;;;;;;;;;;;6381502;27;19920;-89
2023/09/08 13:44:47;;;;;;;;;;;;;;;;;;6364538;27;19919;-89
2023/09/08 13:47:47;;;;;;;;;;;;;;;;;;6393143;27;19949;-88
2023/09/08 13:50:47;;;;;;;;;;;;;;;;;;6400599;27;19919;-89
2023/09/08 13:53:47;;;;;;;;;;;;;;;;;;6397577;27;19914;-90
2023/09/08 13:56:48;;;;;;;;;;;;;;;;;;6396971;27;19915;-89
2023/09/08 13:59:48;;;;;;;;;;;;;;;;;;6372762;28;19943;-89
2023/09/08 14:02:48;;;;;;;;;;;;;;;;;;6372721;28;19900;-88
2023/09/08 14:05:48;;;;;;;;;;;;;;;;;;6375481;28;19919;-89
2023/09/08 14:08:50;;;;;;;;;;;;;;;;;;6376667;28;19915;-89
2023/09/08 14:11:50;;;;;;;;;;;;;;;;;;6369175;28;19911;-89
2023/09/08 14:14:50;;;;;;;;;;;;;;;;;;6355226;28;19952;-88
2023/09/08 14:17:50;;;;;;;;;;;;;;;;;;6370208;28;19969;-88
2023/09/08 14:20:51;;;;;;;;;;;;;;;;;;6352121;28;19932;-91
2023/09/08 14:23:52;;;;;;;;;;;;;;;;;;6362674;28;19923;-90
2023/09/08 14:26:52;;;;;;;;;;;;;;;;;;6342329;28;20307;-88
2023/09/08 14:29:54;;;;;;;;;;;;;;;;;;6348601;28;19926;-86
2023/09/08 14:32:54;;;;;;;;;;;;;;;;;;6349889;28;19911;-89
2023/09/08 14:35:55;;;;;;;;;;;;;;;;;;6350329;28;20395;-88
2023/09/08 14:38:56;;;;;;;;;;;;;;;;;;6350052;28;20019;-87
2023/09/08 14:41:57;;;;;;;;;;;;;;;;;;6340482;28;20022;-87
2023/09/08 14:44:57;;;;;;;;;;;;;;;;;;6347266;28;19951;-85
2023/09/08 14:47:57;;;;;;;;;;;;;;;;;;6345760;28;19919;-82
2023/09/08 14:50:57;;;;;;;;;;;;;;;;;;6346114;28;19938;-82
2023/09/08 14:53:58;;;;;;;;;;;;;;;;;;6344586;28;19919;-81
2023/09/08 14:56:58;;;;;;;;;;;;;;;;;;6338137;28;20296;-83
2023/09/08 14:59:58;;;;;;;;;;;;;;;;;;6302143;28;19928;-82
2023/09/08 15:02:59;;;;;;;;;;;;;;;;;;6301954;28;19993;-82
2023/09/08 15:05:59;;;;;;;;;;;;;;;;;;6310158;28;20033;-83
2023/09/08 15:08:59;;;;;;;;;;;;;;;;;;6325197;28;19920;-83
2023/09/08 15:11:59;;;;;;;;;;;;;;;;;;6313445;28;19935;-81
2023/09/08 15:14:59;;;;;;;;;;;;;;;;;;6302046;28;20457;-82
2023/09/08 15:18:00;;;;;;;;;;;;;;;;;;6321332;28;19908;-82
2023/09/08 15:21:01;;;;;;;;;;;;;;;;;;6326419;28;19965;-83
2023/09/08 15:24:02;;;;;;;;;;;;;;;;;;6303141;28;20477;-84
2023/09/08 15:27:02;;;;;;;;;;;;;;;;;;6322307;28;19923;-83
2023/09/08 15:30:02;;;;;;;;;;;;;;;;;;6301980;28;19951;-83
2023/09/08 15:33:05;;;;;;;;;;;;;;;;;;6317826;28;19919;-83
2023/09/08 15:36:05;;;;;;;;;;;;;;;;;;6300416;28;19916;-83
2023/09/08 15:39:05;;;;;;;;;;;;;;;;;;6331906;28;19942;-84
2023/09/08 15:42:07;;;;;;;;;;;;;;;;;;6320293;28;19920;-83
2023/09/08 15:45:07;;;;;;;;;;;;;;;;;;6336090;28;19979;-83
2023/09/08 15:48:07;;;;;;;;;;;;;;;;;;6320068;28;19969;-83
2023/09/08 15:51:09;;;;;;;;;;;;;;;;;;6319100;28;19934;-84
2023/09/08 15:54:12;;;;;;;;;;;;;;;;;;6321227;28;19941;-83
2023/09/08 15:57:12;;;;;;;;;;;;;;;;;;6324622;28;19912;-83
2023/09/08 16:00:12;;;;;;;;;;;;;;;;;;6342333;28;20023;-83
2023/09/08 16:03:12;;;;;;;;;;;;;;;;;;6345247;28;19908;-82
2023/09/08 16:06:12;;;;;;;;;;;;;;;;;;6344755;28;19911;-82
2023/09/08 16:09:14;;;;;;;;;;;;;;;;;;6335297;28;20339;-83
2023/09/08 16:12:15;;;;;;;;;;;;;;;;;;6330910;28;19908;-83
2023/09/08 16:15:15;;;;;;;;;;;;;;;;;;6322182;28;20359;-82
2023/09/08 16:18:15;;;;;;;;;;;;;;;;;;6348311;28;19918;-82
2023/09/08 16:21:16;;;;;;;;;;;;;;;;;;6344506;28;19912;-83
2023/09/08 16:24:16;;;;;;;;;;;;;;;;;;6327270;28;19926;-82
2023/09/08 16:27:16;;;;;;;;;;;;;;;;;;6349714;28;19951;-82
2023/09/08 16:30:16;;;;;;;;;;;;;;;;;;6346580;28;19918;-82
2023/09/08 16:33:16;;;;;;;;;;;;;;;;;;6348730;28;19920;-82
2023/09/08 16:36:16;;;;;;;;;;;;;;;;;;6342265;28;19916;-82
2023/09/08 16:39:19;;;;;;;;;;;;;;;;;;6338047;28;19939;-81
2023/09/08 16:42:20;;;;;;;;;;;;;;;;;;6347327;28;20074;-82
2023/09/08 16:45:20;;;;;;;;;;;;;;;;;;6345660;28;20342;-82
2023/09/08 16:48:20;;;;;;;;;;;;;;;;;;6326855;28;19958;-81
2023/09/08 16:51:20;;;;;;;;;;;;;;;;;;6329124;28;20231;-81
2023/09/08 16:54:21;;;;;;;;;;;;;;;;;;6347648;28;19912;-81
2023/09/08 16:57:21;;;;;;;;;;;;;;;;;;6347709;28;19911;-81
2023/09/08 17:00:21;;;;;;;;;;;;;;;;;;6348301;28;20377;-81
2023/09/08 17:03:23;;;;;;;;;;;;;;;;;;6349925;28;19912;-81
2023/09/08 17:06:23;;;;;;;;;;;;;;;;;;6349718;28;19939;-81
2023/09/08 17:09:26;;;;;;;;;;;;;;;;;;6333209;28;19969;-81
2023/09/08 17:12:26;;;;;;;;;;;;;;;;;;6348340;28;20339;-81
2023/09/08 17:15:26;;;;;;;;;;;;;;;;;;6354863;28;19916;-81
2023/09/08 17:18:27;;;;;;;;;;;;;;;;;;6373053;28;19911;-78
2023/09/08 17:21:28;;;;;;;;;;;;;;;;;;6364070;28;19916;-79
2023/09/08 17:24:28;;;;;;;;;;;;;;;;;;6374281;28;19931;-79
2023/09/08 17:27:28;;;;;;;;;;;;;;;;;;6373250;28;19927;-80
2023/09/08 17:30:29;;;;;;;;;;;;;;;;;;6367655;28;20046;-80
2023/09/08 17:33:30;;;;;;;;;;;;;;;;;;6353481;28;19943;-80
2023/09/08 17:36:32;;;;;;;;;;;;;;;;;;6368466;28;19912;-80
2023/09/08 17:39:33;;;;;;;;;;;;;;;;;;6373391;28;19947;-81
2023/09/08 17:42:35;;;;;;;;;;;;;;;;;;6371269;28;19947;-80
2023/09/08 17:45:39;;;;;;;;;;;;;;;;;;6374022;28;20072;-79
2023/09/08 17:48:40;;;;;;;;;;;;;;;;;;6374149;28;19983;-81
2023/09/08 17:51:41;;;;;;;;;;;;;;;;;;6362735;28;20448;-81
2023/09/08 17:54:41;;;;;;;;;;;;;;;;;;6367314;28;20093;-81
2023/09/08 17:57:41;;;;;;;;;;;;;;;;;;6366411;28;20289;-81
2023/09/08 18:00:41;;;;;;;;;;;;;;;;;;6371751;28;19982;-82
2023/09/08 18:03:41;;;;;;;;;;;;;;;;;;6363706;28;19908;-83
2023/09/08 18:06:42;;;;;;;;;;;;;;;;;;6358821;28;19912;-83
2023/09/08 18:09:42;;;;;;;;;;;;;;;;;;6338355;28;19991;-81
2023/09/08 18:12:42;;;;;;;;;;;;;;;;;;6337721;28;19912;-81
2023/09/08 18:15:42;;;;;;;;;;;;;;;;;;6352824;28;20351;-81
2023/09/08 18:18:43;;;;;;;;;;;;;;;;;;6335110;28;19927;-81
2023/09/08 18:21:43;;;;;;;;;;;;;;;;;;6346408;28;19922;-81
2023/09/08 18:24:43;;;;;;;;;;;;;;;;;;6349784;28;19916;-81
2023/09/08 18:27:46;;;;;;;;;;;;;;;;;;6347450;28;19920;-81
2023/09/08 18:30:47;;;;;;;;;;;;;;;;;;6346888;28;19912;-81
2023/09/08 18:33:47;;;;;;;;;;;;;;;;;;6338542;28;19919;-80
2023/09/08 18:36:48;;;;;;;;;;;;;;;;;;6333459;28;19911;-80
2023/09/08 18:39:51;;;;;;;;;;;;;;;;;;6348486;28;19938;-80
2023/09/08 18:42:51;;;;;;;;;;;;;;;;;;6348339;28;19912;-80
2023/09/08 18:45:51;;;;;;;;;;;;;;;;;;6330275;28;19918;-81
2023/09/08 18:48:52;;;;;;;;;;;;;;;;;;6330914;28;19950;-82
2023/09/08 18:51:52;;;;;;;;;;;;;;;;;;6323644;28;20242;-82
2023/09/08 18:54:52;;;;;;;;;;;;;;;;;;6340712;28;20247;-82
2023/09/08 18:57:52;;;;;;;;;;;;;;;;;;6340333;28;20302;-81
2023/09/08 19:00:54;;;;;;;;;;;;;;;;;;6323195;28;20436;-81
2023/09/08 19:03:54;;;;;;;;;;;;;;;;;;6322969;28;20385;-80
2023/09/08 19:06:55;;;;;;;;;;;;;;;;;;6304643;28;19912;-80
2023/09/08 19:09:55;;;;;;;;;;;;;;;;;;6300754;28;19916;-81
2023/09/08 19:12:55;;;;;;;;;;;;;;;;;;6295648;28;19916;-80
2023/09/08 19:15:56;;;;;;;;;;;;;;;;;;6302759;28;19915;-80
2023/09/08 19:18:56;;;;;;;;;;;;;;;;;;6323246;28;19916;-80
2023/09/08 19:21:56;;;;;;;;;;;;;;;;;;6317524;28;20440;-81
2023/09/08 19:24:56;;;;;;;;;;;;;;;;;;6323531;28;19916;-81
2023/09/08 19:27:56;;;;;;;;;;;;;;;;;;6302708;28;19928;-80
2023/09/08 19:30:58;;;;;;;;;;;;;;;;;;6321640;28;20345;-78
2023/09/08 19:33:58;;;;;;;;;;;;;;;;;;6318461;28;19943;-79
2023/09/08 19:36:59;;;;;;;;;;;;;;;;;;6321704;28;20388;-79
2023/09/08 19:39:59;;;;;;;;;;;;;;;;;;6315569;28;19944;-79
2023/09/08 19:42:59;;;;;;;;;;;;;;;;;;6322646;28;19908;-79
2023/09/08 19:46:00;;;;;;;;;;;;;;;;;;6319922;28;19979;-79
2023/09/08 19:49:00;;;;;;;;;;;;;;;;;;6329275;28;19912;-79
2023/09/08 19:52:00;;;;;;;;;;;;;;;;;;6324695;28;19950;-80
2023/09/08 19:55:00;;;;;;;;;;;;;;;;;;6317333;28;19943;-79
2023/09/08 19:58:00;;;;;;;;;;;;;;;;;;6301633;28;19916;-79
2023/09/08 20:01:01;;;;;;;;;;;;;;;;;;6364094;27;19912;-80
2023/09/08 20:04:01;;;;;;;;;;;;;;;;;;6356274;27;20020;-80
2023/09/08 20:07:02;;;;;;;;;;;;;;;;;;6372485;27;19912;-79
2023/09/08 20:10:02;;;;;;;;;;;;;;;;;;6370960;27;19915;-79
2023/09/08 20:13:03;;;;;;;;;;;;;;;;;;6361105;27;19976;-80
2023/09/08 20:16:04;;;;;;;;;;;;;;;;;;6360668;27;19916;-80
2023/09/08 20:19:04;;;;;;;;;;;;;;;;;;6366576;27;19987;-80
2023/09/08 20:22:05;;;;;;;;;;;;;;;;;;6387544;27;19935;-79
2023/09/08 20:25:09;;;;;;;;;;;;;;;;;;6009974;27;9999775;-80
2023/09/08 20:28:09;;;;;;;;;;;;;;;;;;6339974;27;20385;-79
2023/09/08 20:31:10;;;;;;;;;;;;;;;;;;6368566;27;19911;-79
2023/09/08 20:34:15;;;;;;;;;;;;;;;;;;6364357;27;19911;-80